首页
METAR-TAF:

METAR-TAF

机场 :

伊丽莎白市, 北卡罗来纳州, 美国

纬度: 36-15-47N, 经度: 076-10-58W, 海拔: 3米

当前天气观测

该预报发布于48分钟前的22:54 UTC
风速5节,风向西
温度 13°C
湿度 54%
气压 1008 hPa
能見度: 16.1公里
天空无云

METAR: KECG 172254Z 27005KT 10SM CLR 13/04 A2978 RMK AO2 SLP083 T01330039

时间: 19:42 (23:42 UTC)

预报

该预报发布于10分钟前的23:32 UTC
预报有效从18日的 00点(UTC)到 18日的 24点(UTC)
风速7节,风向西
能見度: 10公里
天空无云
从 18日的 1500点(UTC)
风速10节,风向西北
能見度: 10公里
天空无云

TAF: KECG 172332Z 1800/1824 28007KT P6SM SKC FM181500 31010KT P6SM SKC

超过4000个机场的气象观测和天气预报(METAR&TAF报告)。

可查询的气象台以黄色和红色小点在地图上表示。

将鼠标移到小点上方,可查看气象台名称。

然后点击查看天气观测和预报。

如需切换地图:点击带黑十字的绿色按钮放大地图;点击带横线的绿色按钮缩小地图;或者点击绿色箭头查看邻近地区的地图。


METAR-TAF: